sensor_id;sensor_type;location;lat;lon;timestamp;P1;durP1;ratioP1;P2;durP2;ratioP2
66256;SDS011;53049;43.446;3.698;2024-02-26T00:01:36;2.67;;;1.80;;
66256;SDS011;53049;43.446;3.698;2024-02-26T00:04:02;2.75;;;1.70;;
66256;SDS011;53049;43.446;3.698;2024-02-26T00:06:28;3.85;;;1.80;;
66256;SDS011;53049;43.446;3.698;2024-02-26T00:08:54;2.10;;;1.70;;
66256;SDS011;53049;43.446;3.698;2024-02-26T00:11:20;2.30;;;1.50;;
66256;SDS011;53049;43.446;3.698;2024-02-26T00:13:46;2.00;;;1.50;;
66256;SDS011;53049;43.446;3.698;2024-02-26T00:16:11;2.47;;;1.55;;
66256;SDS011;53049;43.446;3.698;2024-02-26T00:18:37;2.17;;;1.70;;
66256;SDS011;53049;43.446;3.698;2024-02-26T00:21:03;3.92;;;2.22;;
66256;SDS011;53049;43.446;3.698;2024-02-26T00:23:29;6.55;;;4.53;;
66256;SDS011;53049;43.446;3.698;2024-02-26T00:25:54;6.63;;;4.30;;
66256;SDS011;53049;43.446;3.698;2024-02-26T00:28:20;4.65;;;2.88;;
66256;SDS011;53049;43.446;3.698;2024-02-26T00:30:46;3.28;;;2.38;;
66256;SDS011;53049;43.446;3.698;2024-02-26T00:33:14;5.80;;;2.40;;
66256;SDS011;53049;43.446;3.698;2024-02-26T00:35:42;4.40;;;2.38;;
66256;SDS011;53049;43.446;3.698;2024-02-26T00:38:07;4.20;;;2.10;;
66256;SDS011;53049;43.446;3.698;2024-02-26T00:40:33;3.20;;;2.10;;
66256;SDS011;53049;43.446;3.698;2024-02-26T00:42:59;3.55;;;2.10;;
66256;SDS011;53049;43.446;3.698;2024-02-26T00:45:25;5.38;;;2.58;;
66256;SDS011;53049;43.446;3.698;2024-02-26T00:47:50;4.57;;;2.53;;
66256;SDS011;53049;43.446;3.698;2024-02-26T00:50:16;4.28;;;2.70;;
66256;SDS011;53049;43.446;3.698;2024-02-26T00:52:42;4.68;;;2.75;;
66256;SDS011;53049;43.446;3.698;2024-02-26T00:55:08;5.57;;;2.70;;
66256;SDS011;53049;43.446;3.698;2024-02-26T00:57:34;6.05;;;2.65;;
66256;SDS011;53049;43.446;3.698;2024-02-26T00:59:59;5.43;;;2.80;;
66256;SDS011;53049;43.446;3.698;2024-02-26T01:02:25;7.10;;;2.85;;
66256;SDS011;53049;43.446;3.698;2024-02-26T01:04:51;5.85;;;2.67;;
66256;SDS011;53049;43.446;3.698;2024-02-26T01:07:17;5.43;;;2.70;;
66256;SDS011;53049;43.446;3.698;2024-02-26T01:09:43;4.72;;;2.92;;
66256;SDS011;53049;43.446;3.698;2024-02-26T01:12:09;2.92;;;2.13;;
66256;SDS011;53049;43.446;3.698;2024-02-26T01:14:35;4.95;;;2.60;;
66256;SDS011;53049;43.446;3.698;2024-02-26T01:17:00;3.72;;;2.20;;
66256;SDS011;53049;43.446;3.698;2024-02-26T01:19:26;4.57;;;2.42;;
66256;SDS011;53049;43.446;3.698;2024-02-26T01:21:52;4.32;;;2.30;;
66256;SDS011;53049;43.446;3.698;2024-02-26T01:24:18;3.00;;;2.08;;
66256;SDS011;53049;43.446;3.698;2024-02-26T01:26:44;3.50;;;2.10;;
66256;SDS011;53049;43.446;3.698;2024-02-26T01:29:09;2.58;;;1.65;;
66256;SDS011;53049;43.446;3.698;2024-02-26T01:31:35;2.78;;;1.80;;
66256;SDS011;53049;43.446;3.698;2024-02-26T01:34:01;4.60;;;2.03;;
66256;SDS011;53049;43.446;3.698;2024-02-26T01:36:27;2.85;;;1.90;;
66256;SDS011;53049;43.446;3.698;2024-02-26T01:38:52;3.03;;;1.90;;
66256;SDS011;53049;43.446;3.698;2024-02-26T01:41:18;3.53;;;2.05;;
66256;SDS011;53049;43.446;3.698;2024-02-26T01:43:44;5.00;;;2.08;;
66256;SDS011;53049;43.446;3.698;2024-02-26T01:46:11;1.95;;;1.70;;
66256;SDS011;53049;43.446;3.698;2024-02-26T01:48:40;3.35;;;1.98;;
66256;SDS011;53049;43.446;3.698;2024-02-26T01:51:06;4.20;;;2.28;;
66256;SDS011;53049;43.446;3.698;2024-02-26T01:53:32;3.40;;;2.10;;
66256;SDS011;53049;43.446;3.698;2024-02-26T01:56:00;3.25;;;2.20;;
66256;SDS011;53049;43.446;3.698;2024-02-26T01:58:26;4.63;;;2.53;;
66256;SDS011;53049;43.446;3.698;2024-02-26T02:00:52;4.28;;;2.50;;
66256;SDS011;53049;43.446;3.698;2024-02-26T02:03:18;5.40;;;2.80;;
66256;SDS011;53049;43.446;3.698;2024-02-26T02:05:44;4.35;;;2.78;;
66256;SDS011;53049;43.446;3.698;2024-02-26T02:08:10;6.55;;;3.38;;
66256;SDS011;53049;43.446;3.698;2024-02-26T02:10:39;4.60;;;3.13;;
66256;SDS011;53049;43.446;3.698;2024-02-26T02:13:06;4.15;;;2.90;;
66256;SDS011;53049;43.446;3.698;2024-02-26T02:15:32;4.85;;;3.10;;
66256;SDS011;53049;43.446;3.698;2024-02-26T02:17:58;6.82;;;3.50;;
66256;SDS011;53049;43.446;3.698;2024-02-26T02:20:31;5.60;;;3.22;;
66256;SDS011;53049;43.446;3.698;2024-02-26T02:23:00;5.63;;;2.90;;
66256;SDS011;53049;43.446;3.698;2024-02-26T02:25:26;5.43;;;3.15;;
66256;SDS011;53049;43.446;3.698;2024-02-26T02:27:55;5.47;;;3.50;;
66256;SDS011;53049;43.446;3.698;2024-02-26T02:30:26;5.38;;;3.30;;
66256;SDS011;53049;43.446;3.698;2024-02-26T02:32:54;5.60;;;3.40;;
66256;SDS011;53049;43.446;3.698;2024-02-26T02:35:22;7.45;;;3.75;;
66256;SDS011;53049;43.446;3.698;2024-02-26T02:37:48;6.85;;;3.50;;
66256;SDS011;53049;43.446;3.698;2024-02-26T02:40:14;6.72;;;3.58;;
66256;SDS011;53049;43.446;3.698;2024-02-26T02:42:40;5.85;;;3.30;;
66256;SDS011;53049;43.446;3.698;2024-02-26T02:45:06;5.20;;;3.20;;
66256;SDS011;53049;43.446;3.698;2024-02-26T02:47:35;6.60;;;3.20;;
66256;SDS011;53049;43.446;3.698;2024-02-26T02:50:02;6.15;;;3.40;;
66256;SDS011;53049;43.446;3.698;2024-02-26T02:52:28;5.00;;;3.17;;
66256;SDS011;53049;43.446;3.698;2024-02-26T02:54:54;5.00;;;2.97;;
66256;SDS011;53049;43.446;3.698;2024-02-26T02:57:20;4.80;;;3.03;;
66256;SDS011;53049;43.446;3.698;2024-02-26T02:59:46;5.28;;;3.00;;
66256;SDS011;53049;43.446;3.698;2024-02-26T03:02:12;7.18;;;3.30;;
66256;SDS011;53049;43.446;3.698;2024-02-26T03:04:37;7.82;;;3.75;;
66256;SDS011;53049;43.446;3.698;2024-02-26T03:07:03;5.57;;;3.63;;
66256;SDS011;53049;43.446;3.698;2024-02-26T03:09:29;5.38;;;2.95;;
66256;SDS011;53049;43.446;3.698;2024-02-26T03:11:54;4.57;;;2.72;;
66256;SDS011;53049;43.446;3.698;2024-02-26T03:14:20;4.75;;;2.83;;
66256;SDS011;53049;43.446;3.698;2024-02-26T03:16:46;4.78;;;2.88;;
66256;SDS011;53049;43.446;3.698;2024-02-26T03:19:14;4.40;;;2.95;;
66256;SDS011;53049;43.446;3.698;2024-02-26T03:21:41;6.82;;;3.35;;
66256;SDS011;53049;43.446;3.698;2024-02-26T03:24:07;4.50;;;2.97;;
66256;SDS011;53049;43.446;3.698;2024-02-26T03:26:37;6.38;;;3.70;;
66256;SDS011;53049;43.446;3.698;2024-02-26T03:29:03;4.28;;;2.83;;
66256;SDS011;53049;43.446;3.698;2024-02-26T03:31:29;4.10;;;2.80;;
66256;SDS011;53049;43.446;3.698;2024-02-26T03:33:55;4.53;;;2.90;;
66256;SDS011;53049;43.446;3.698;2024-02-26T03:36:20;4.43;;;2.63;;
66256;SDS011;53049;43.446;3.698;2024-02-26T03:38:49;3.03;;;2.20;;
66256;SDS011;53049;43.446;3.698;2024-02-26T03:41:14;4.65;;;2.60;;
66256;SDS011;53049;43.446;3.698;2024-02-26T03:43:40;4.15;;;2.70;;
66256;SDS011;53049;43.446;3.698;2024-02-26T03:46:09;4.43;;;2.97;;
66256;SDS011;53049;43.446;3.698;2024-02-26T03:48:41;5.28;;;2.70;;
66256;SDS011;53049;43.446;3.698;2024-02-26T03:51:08;4.38;;;2.85;;
66256;SDS011;53049;43.446;3.698;2024-02-26T03:53:35;4.38;;;2.80;;
66256;SDS011;53049;43.446;3.698;2024-02-26T03:56:04;4.72;;;2.80;;
66256;SDS011;53049;43.446;3.698;2024-02-26T03:58:30;6.57;;;3.00;;
66256;SDS011;53049;43.446;3.698;2024-02-26T04:00:56;4.43;;;2.90;;
66256;SDS011;53049;43.446;3.698;2024-02-26T04:03:22;4.72;;;3.00;;
66256;SDS011;53049;43.446;3.698;2024-02-26T04:05:48;4.00;;;2.40;;
66256;SDS011;53049;43.446;3.698;2024-02-26T04:08:13;3.65;;;2.50;;
66256;SDS011;53049;43.446;3.698;2024-02-26T04:10:39;4.43;;;2.70;;
66256;SDS011;53049;43.446;3.698;2024-02-26T04:13:05;5.65;;;2.42;;
66256;SDS011;53049;43.446;3.698;2024-02-26T04:15:32;4.20;;;2.65;;
66256;SDS011;53049;43.446;3.698;2024-02-26T04:17:58;4.60;;;2.70;;
66256;SDS011;53049;43.446;3.698;2024-02-26T04:20:23;4.40;;;2.70;;
66256;SDS011;53049;43.446;3.698;2024-02-26T04:22:49;4.70;;;2.60;;
66256;SDS011;53049;43.446;3.698;2024-02-26T04:25:15;4.15;;;2.60;;
66256;SDS011;53049;43.446;3.698;2024-02-26T04:27:40;3.97;;;2.50;;
66256;SDS011;53049;43.446;3.698;2024-02-26T04:30:06;5.38;;;2.50;;
66256;SDS011;53049;43.446;3.698;2024-02-26T04:32:33;5.00;;;2.60;;
66256;SDS011;53049;43.446;3.698;2024-02-26T04:34:59;3.97;;;2.58;;
66256;SDS011;53049;43.446;3.698;2024-02-26T04:37:28;6.63;;;2.90;;
66256;SDS011;53049;43.446;3.698;2024-02-26T04:39:57;6.63;;;3.90;;
66256;SDS011;53049;43.446;3.698;2024-02-26T04:42:26;5.95;;;3.78;;
66256;SDS011;53049;43.446;3.698;2024-02-26T04:44:52;5.40;;;3.05;;
66256;SDS011;53049;43.446;3.698;2024-02-26T04:47:19;5.00;;;3.20;;
66256;SDS011;53049;43.446;3.698;2024-02-26T04:49:51;4.68;;;2.92;;
66256;SDS011;53049;43.446;3.698;2024-02-26T04:52:17;5.55;;;3.42;;
66256;SDS011;53049;43.446;3.698;2024-02-26T04:54:43;6.20;;;3.40;;
66256;SDS011;53049;43.446;3.698;2024-02-26T04:57:09;5.15;;;3.20;;
66256;SDS011;53049;43.446;3.698;2024-02-26T04:59:34;6.43;;;3.60;;
66256;SDS011;53049;43.446;3.698;2024-02-26T05:02:00;5.30;;;3.30;;
66256;SDS011;53049;43.446;3.698;2024-02-26T05:04:26;4.47;;;3.30;;
66256;SDS011;53049;43.446;3.698;2024-02-26T05:06:51;4.97;;;3.15;;
66256;SDS011;53049;43.446;3.698;2024-02-26T05:09:18;5.63;;;3.67;;
66256;SDS011;53049;43.446;3.698;2024-02-26T05:11:44;6.07;;;3.70;;
66256;SDS011;53049;43.446;3.698;2024-02-26T05:14:09;6.88;;;3.47;;
66256;SDS011;53049;43.446;3.698;2024-02-26T05:16:35;5.45;;;3.17;;
66256;SDS011;53049;43.446;3.698;2024-02-26T05:19:01;5.63;;;3.72;;
66256;SDS011;53049;43.446;3.698;2024-02-26T05:21:26;5.93;;;3.60;;
66256;SDS011;53049;43.446;3.698;2024-02-26T05:23:52;6.20;;;3.30;;
66256;SDS011;53049;43.446;3.698;2024-02-26T05:26:21;5.32;;;3.72;;
66256;SDS011;53049;43.446;3.698;2024-02-26T05:28:47;6.05;;;3.70;;
66256;SDS011;53049;43.446;3.698;2024-02-26T05:31:13;5.80;;;3.70;;
66256;SDS011;53049;43.446;3.698;2024-02-26T05:33:39;7.07;;;3.60;;
66256;SDS011;53049;43.446;3.698;2024-02-26T05:36:05;7.10;;;3.72;;
66256;SDS011;53049;43.446;3.698;2024-02-26T05:38:31;5.57;;;3.42;;
66256;SDS011;53049;43.446;3.698;2024-02-26T05:40:57;6.38;;;4.00;;
66256;SDS011;53049;43.446;3.698;2024-02-26T05:43:24;6.47;;;4.07;;
66256;SDS011;53049;43.446;3.698;2024-02-26T05:45:50;6.47;;;3.92;;
66256;SDS011;53049;43.446;3.698;2024-02-26T05:48:16;7.18;;;4.65;;
66256;SDS011;53049;43.446;3.698;2024-02-26T05:50:44;6.70;;;4.60;;
66256;SDS011;53049;43.446;3.698;2024-02-26T05:53:10;5.85;;;4.30;;
66256;SDS011;53049;43.446;3.698;2024-02-26T05:55:36;5.57;;;4.05;;
66256;SDS011;53049;43.446;3.698;2024-02-26T05:58:02;7.25;;;4.85;;
66256;SDS011;53049;43.446;3.698;2024-02-26T06:00:28;6.03;;;4.00;;
66256;SDS011;53049;43.446;3.698;2024-02-26T06:02:53;7.20;;;3.70;;
66256;SDS011;53049;43.446;3.698;2024-02-26T06:05:19;7.43;;;3.97;;
66256;SDS011;53049;43.446;3.698;2024-02-26T06:07:44;6.97;;;3.88;;
66256;SDS011;53049;43.446;3.698;2024-02-26T06:10:10;6.90;;;4.05;;
66256;SDS011;53049;43.446;3.698;2024-02-26T06:12:36;9.60;;;4.15;;
66256;SDS011;53049;43.446;3.698;2024-02-26T06:15:02;6.95;;;4.53;;
66256;SDS011;53049;43.446;3.698;2024-02-26T06:17:29;6.85;;;4.07;;
66256;SDS011;53049;43.446;3.698;2024-02-26T06:19:54;6.10;;;4.10;;
66256;SDS011;53049;43.446;3.698;2024-02-26T06:22:20;7.30;;;4.00;;
66256;SDS011;53049;43.446;3.698;2024-02-26T06:24:46;7.20;;;4.20;;
66256;SDS011;53049;43.446;3.698;2024-02-26T06:27:11;7.82;;;4.55;;
66256;SDS011;53049;43.446;3.698;2024-02-26T06:29:37;8.13;;;4.88;;
66256;SDS011;53049;43.446;3.698;2024-02-26T06:32:03;7.47;;;5.20;;
66256;SDS011;53049;43.446;3.698;2024-02-26T06:34:29;7.78;;;5.50;;
66256;SDS011;53049;43.446;3.698;2024-02-26T06:36:54;10.50;;;6.72;;
66256;SDS011;53049;43.446;3.698;2024-02-26T06:39:20;8.95;;;5.55;;
66256;SDS011;53049;43.446;3.698;2024-02-26T06:41:46;9.55;;;5.93;;
66256;SDS011;53049;43.446;3.698;2024-02-26T06:44:12;8.98;;;5.68;;
66256;SDS011;53049;43.446;3.698;2024-02-26T06:46:38;8.75;;;5.47;;
66256;SDS011;53049;43.446;3.698;2024-02-26T06:49:04;9.25;;;5.82;;
66256;SDS011;53049;43.446;3.698;2024-02-26T06:51:30;7.68;;;6.13;;
66256;SDS011;53049;43.446;3.698;2024-02-26T06:53:56;8.48;;;6.30;;
66256;SDS011;53049;43.446;3.698;2024-02-26T06:56:21;8.27;;;6.05;;
66256;SDS011;53049;43.446;3.698;2024-02-26T06:58:48;8.60;;;6.00;;
66256;SDS011;53049;43.446;3.698;2024-02-26T07:01:14;11.10;;;6.90;;
66256;SDS011;53049;43.446;3.698;2024-02-26T07:03:40;9.63;;;6.18;;
66256;SDS011;53049;43.446;3.698;2024-02-26T07:06:06;10.02;;;6.13;;
66256;SDS011;53049;43.446;3.698;2024-02-26T07:08:32;8.50;;;6.88;;
66256;SDS011;53049;43.446;3.698;2024-02-26T07:10:57;8.25;;;6.40;;
66256;SDS011;53049;43.446;3.698;2024-02-26T07:13:23;10.38;;;7.30;;
66256;SDS011;53049;43.446;3.698;2024-02-26T07:15:49;10.43;;;6.55;;
66256;SDS011;53049;43.446;3.698;2024-02-26T07:18:14;9.73;;;6.68;;
66256;SDS011;53049;43.446;3.698;2024-02-26T07:20:40;9.50;;;7.50;;
66256;SDS011;53049;43.446;3.698;2024-02-26T07:23:06;9.60;;;7.07;;
66256;SDS011;53049;43.446;3.698;2024-02-26T07:25:32;12.30;;;7.75;;
66256;SDS011;53049;43.446;3.698;2024-02-26T07:27:57;12.60;;;7.72;;
66256;SDS011;53049;43.446;3.698;2024-02-26T07:30:23;12.77;;;9.15;;
66256;SDS011;53049;43.446;3.698;2024-02-26T07:32:49;9.73;;;7.72;;
66256;SDS011;53049;43.446;3.698;2024-02-26T07:35:15;10.90;;;7.78;;
66256;SDS011;53049;43.446;3.698;2024-02-26T07:37:42;10.30;;;7.22;;
66256;SDS011;53049;43.446;3.698;2024-02-26T07:40:08;10.57;;;7.43;;
66256;SDS011;53049;43.446;3.698;2024-02-26T07:42:34;11.40;;;7.85;;
66256;SDS011;53049;43.446;3.698;2024-02-26T07:45:00;9.25;;;7.13;;
66256;SDS011;53049;43.446;3.698;2024-02-26T07:47:27;9.75;;;6.47;;
66256;SDS011;53049;43.446;3.698;2024-02-26T07:49:52;11.07;;;6.80;;
66256;SDS011;53049;43.446;3.698;2024-02-26T07:52:18;11.73;;;7.03;;
66256;SDS011;53049;43.446;3.698;2024-02-26T07:54:44;9.77;;;6.78;;
66256;SDS011;53049;43.446;3.698;2024-02-26T07:57:10;13.57;;;7.65;;
66256;SDS011;53049;43.446;3.698;2024-02-26T07:59:35;10.27;;;7.13;;
66256;SDS011;53049;43.446;3.698;2024-02-26T08:02:01;10.45;;;6.90;;
66256;SDS011;53049;43.446;3.698;2024-02-26T08:04:28;11.02;;;6.95;;
66256;SDS011;53049;43.446;3.698;2024-02-26T08:06:54;10.95;;;7.75;;
66256;SDS011;53049;43.446;3.698;2024-02-26T08:09:20;12.20;;;7.57;;
66256;SDS011;53049;43.446;3.698;2024-02-26T08:11:45;11.98;;;8.48;;
66256;SDS011;53049;43.446;3.698;2024-02-26T08:14:11;15.95;;;9.48;;
66256;SDS011;53049;43.446;3.698;2024-02-26T08:16:36;9.70;;;6.68;;
66256;SDS011;53049;43.446;3.698;2024-02-26T08:19:02;11.73;;;6.95;;
66256;SDS011;53049;43.446;3.698;2024-02-26T08:21:28;9.60;;;6.25;;
66256;SDS011;53049;43.446;3.698;2024-02-26T08:23:54;10.38;;;5.50;;
66256;SDS011;53049;43.446;3.698;2024-02-26T08:26:20;16.10;;;9.07;;
66256;SDS011;53049;43.446;3.698;2024-02-26T08:28:47;10.15;;;4.82;;
66256;SDS011;53049;43.446;3.698;2024-02-26T08:31:14;8.35;;;5.35;;
66256;SDS011;53049;43.446;3.698;2024-02-26T08:33:39;7.13;;;4.72;;
66256;SDS011;53049;43.446;3.698;2024-02-26T08:36:05;8.95;;;4.80;;
66256;SDS011;53049;43.446;3.698;2024-02-26T08:38:31;9.00;;;4.40;;
66256;SDS011;53049;43.446;3.698;2024-02-26T08:40:59;9.43;;;4.63;;
66256;SDS011;53049;43.446;3.698;2024-02-26T08:43:26;7.53;;;4.25;;
66256;SDS011;53049;43.446;3.698;2024-02-26T08:45:51;9.00;;;4.72;;
66256;SDS011;53049;43.446;3.698;2024-02-26T08:48:17;10.02;;;4.45;;
66256;SDS011;53049;43.446;3.698;2024-02-26T08:50:43;8.20;;;4.70;;
66256;SDS011;53049;43.446;3.698;2024-02-26T08:53:09;9.07;;;4.65;;
66256;SDS011;53049;43.446;3.698;2024-02-26T08:55:34;8.73;;;4.63;;
66256;SDS011;53049;43.446;3.698;2024-02-26T08:58:00;9.13;;;5.00;;
66256;SDS011;53049;43.446;3.698;2024-02-26T09:00:26;7.82;;;4.65;;
66256;SDS011;53049;43.446;3.698;2024-02-26T09:02:51;8.27;;;4.32;;
66256;SDS011;53049;43.446;3.698;2024-02-26T09:05:17;7.15;;;4.00;;
66256;SDS011;53049;43.446;3.698;2024-02-26T09:07:43;6.57;;;3.85;;
66256;SDS011;53049;43.446;3.698;2024-02-26T09:10:09;6.22;;;4.20;;
66256;SDS011;53049;43.446;3.698;2024-02-26T09:12:35;7.55;;;4.90;;
66256;SDS011;53049;43.446;3.698;2024-02-26T09:15:02;8.20;;;4.03;;
66256;SDS011;53049;43.446;3.698;2024-02-26T09:17:28;6.78;;;4.63;;
66256;SDS011;53049;43.446;3.698;2024-02-26T09:19:54;7.78;;;4.00;;
66256;SDS011;53049;43.446;3.698;2024-02-26T09:22:19;5.63;;;3.50;;
66256;SDS011;53049;43.446;3.698;2024-02-26T09:24:45;7.07;;;3.80;;
66256;SDS011;53049;43.446;3.698;2024-02-26T09:27:11;6.63;;;2.75;;
66256;SDS011;53049;43.446;3.698;2024-02-26T09:29:37;8.07;;;3.25;;
66256;SDS011;53049;43.446;3.698;2024-02-26T09:32:02;8.00;;;2.83;;
66256;SDS011;53049;43.446;3.698;2024-02-26T09:34:28;9.38;;;4.18;;
66256;SDS011;53049;43.446;3.698;2024-02-26T09:36:54;8.38;;;4.25;;
66256;SDS011;53049;43.446;3.698;2024-02-26T09:39:20;8.20;;;3.60;;
66256;SDS011;53049;43.446;3.698;2024-02-26T09:41:47;6.13;;;3.78;;
66256;SDS011;53049;43.446;3.698;2024-02-26T09:44:15;7.93;;;4.30;;
66256;SDS011;53049;43.446;3.698;2024-02-26T09:46:47;8.23;;;3.92;;
66256;SDS011;53049;43.446;3.698;2024-02-26T09:49:16;8.93;;;4.10;;
66256;SDS011;53049;43.446;3.698;2024-02-26T09:51:43;8.60;;;4.03;;
66256;SDS011;53049;43.446;3.698;2024-02-26T09:54:09;9.57;;;3.50;;
66256;SDS011;53049;43.446;3.698;2024-02-26T09:56:36;11.88;;;4.70;;
66256;SDS011;53049;43.446;3.698;2024-02-26T09:59:06;9.07;;;4.00;;
66256;SDS011;53049;43.446;3.698;2024-02-26T10:01:38;8.50;;;4.07;;
66256;SDS011;53049;43.446;3.698;2024-02-26T10:04:06;7.78;;;3.72;;
66256;SDS011;53049;43.446;3.698;2024-02-26T10:06:34;8.00;;;3.35;;
66256;SDS011;53049;43.446;3.698;2024-02-26T10:09:02;7.95;;;2.92;;
66256;SDS011;53049;43.446;3.698;2024-02-26T10:11:31;6.93;;;2.22;;
66256;SDS011;53049;43.446;3.698;2024-02-26T10:13:57;6.20;;;2.50;;
66256;SDS011;53049;43.446;3.698;2024-02-26T10:16:23;5.50;;;2.45;;
66256;SDS011;53049;43.446;3.698;2024-02-26T10:18:50;9.43;;;3.00;;
66256;SDS011;53049;43.446;3.698;2024-02-26T10:21:18;10.32;;;2.30;;
66256;SDS011;53049;43.446;3.698;2024-02-26T10:23:47;8.00;;;2.60;;
66256;SDS011;53049;43.446;3.698;2024-02-26T10:26:14;9.27;;;2.00;;
66256;SDS011;53049;43.446;3.698;2024-02-26T10:28:43;10.88;;;2.75;;
66256;SDS011;53049;43.446;3.698;2024-02-26T10:31:10;11.10;;;2.47;;
66256;SDS011;53049;43.446;3.698;2024-02-26T10:33:39;6.57;;;2.15;;
66256;SDS011;53049;43.446;3.698;2024-02-26T10:36:06;10.68;;;2.65;;
66256;SDS011;53049;43.446;3.698;2024-02-26T10:38:33;6.43;;;2.40;;
66256;SDS011;53049;43.446;3.698;2024-02-26T10:41:03;6.38;;;2.25;;
66256;SDS011;53049;43.446;3.698;2024-02-26T10:43:30;11.43;;;3.38;;
66256;SDS011;53049;43.446;3.698;2024-02-26T10:45:56;7.00;;;2.67;;
66256;SDS011;53049;43.446;3.698;2024-02-26T10:48:22;5.57;;;2.03;;
66256;SDS011;53049;43.446;3.698;2024-02-26T10:50:48;7.00;;;2.22;;
66256;SDS011;53049;43.446;3.698;2024-02-26T10:53:16;6.35;;;1.85;;
66256;SDS011;53049;43.446;3.698;2024-02-26T10:55:48;8.95;;;2.53;;
66256;SDS011;53049;43.446;3.698;2024-02-26T10:58:19;7.07;;;2.33;;
66256;SDS011;53049;43.446;3.698;2024-02-26T11:00:46;9.57;;;3.00;;
66256;SDS011;53049;43.446;3.698;2024-02-26T11:03:14;7.68;;;2.47;;
66256;SDS011;53049;43.446;3.698;2024-02-26T11:05:46;6.22;;;2.10;;
66256;SDS011;53049;43.446;3.698;2024-02-26T11:08:13;7.95;;;2.17;;
66256;SDS011;53049;43.446;3.698;2024-02-26T11:10:40;6.88;;;2.20;;
66256;SDS011;53049;43.446;3.698;2024-02-26T11:13:07;11.70;;;2.78;;
66256;SDS011;53049;43.446;3.698;2024-02-26T11:15:34;6.75;;;2.10;;
66256;SDS011;53049;43.446;3.698;2024-02-26T11:18:01;7.45;;;2.58;;
66256;SDS011;53049;43.446;3.698;2024-02-26T11:20:29;8.52;;;2.47;;
66256;SDS011;53049;43.446;3.698;2024-02-26T11:22:57;5.82;;;2.30;;
66256;SDS011;53049;43.446;3.698;2024-02-26T11:25:22;4.97;;;1.83;;
66256;SDS011;53049;43.446;3.698;2024-02-26T11:27:54;8.68;;;2.50;;
66256;SDS011;53049;43.446;3.698;2024-02-26T11:30:25;6.32;;;2.40;;
66256;SDS011;53049;43.446;3.698;2024-02-26T11:32:54;8.25;;;2.50;;
66256;SDS011;53049;43.446;3.698;2024-02-26T11:35:19;6.07;;;1.80;;
66256;SDS011;53049;43.446;3.698;2024-02-26T11:37:55;8.93;;;2.30;;
66256;SDS011;53049;43.446;3.698;2024-02-26T11:40:22;5.60;;;2.20;;
66256;SDS011;53049;43.446;3.698;2024-02-26T11:42:50;6.18;;;2.10;;
66256;SDS011;53049;43.446;3.698;2024-02-26T11:48:16;4.45;;;1.90;;
66256;SDS011;53049;43.446;3.698;2024-02-26T11:50:46;7.32;;;1.85;;
66256;SDS011;53049;43.446;3.698;2024-02-26T11:53:30;8.90;;;1.85;;
66256;SDS011;53049;43.446;3.698;2024-02-26T11:59:36;7.38;;;1.90;;
66256;SDS011;53049;43.446;3.698;2024-02-26T12:02:03;7.72;;;2.03;;
66256;SDS011;53049;43.446;3.698;2024-02-26T12:04:29;5.72;;;2.33;;
66256;SDS011;53049;43.446;3.698;2024-02-26T12:06:57;8.82;;;1.90;;
66256;SDS011;53049;43.446;3.698;2024-02-26T12:12:06;4.82;;;1.70;;
66256;SDS011;53049;43.446;3.698;2024-02-26T12:14:34;3.50;;;1.52;;
66256;SDS011;53049;43.446;3.698;2024-02-26T12:19:46;4.70;;;1.80;;
66256;SDS011;53049;43.446;3.698;2024-02-26T12:22:12;7.55;;;1.90;;
66256;SDS011;53049;43.446;3.698;2024-02-26T12:24:39;7.72;;;2.22;;
66256;SDS011;53049;43.446;3.698;2024-02-26T12:27:05;5.10;;;2.35;;
66256;SDS011;53049;43.446;3.698;2024-02-26T12:29:31;5.00;;;1.90;;
66256;SDS011;53049;43.446;3.698;2024-02-26T12:31:57;3.95;;;1.63;;
66256;SDS011;53049;43.446;3.698;2024-02-26T12:34:23;3.88;;;1.40;;
66256;SDS011;53049;43.446;3.698;2024-02-26T12:36:49;4.53;;;1.90;;
66256;SDS011;53049;43.446;3.698;2024-02-26T12:39:15;6.75;;;1.85;;
66256;SDS011;53049;43.446;3.698;2024-02-26T12:41:41;5.35;;;2.08;;
66256;SDS011;53049;43.446;3.698;2024-02-26T12:44:14;5.07;;;1.85;;
66256;SDS011;53049;43.446;3.698;2024-02-26T12:46:42;8.43;;;2.20;;
66256;SDS011;53049;43.446;3.698;2024-02-26T12:49:08;5.95;;;2.10;;
66256;SDS011;53049;43.446;3.698;2024-02-26T12:51:39;6.10;;;2.50;;
66256;SDS011;53049;43.446;3.698;2024-02-26T12:54:06;5.63;;;2.05;;
66256;SDS011;53049;43.446;3.698;2024-02-26T12:56:33;8.05;;;2.53;;
66256;SDS011;53049;43.446;3.698;2024-02-26T12:58:59;7.70;;;2.38;;
66256;SDS011;53049;43.446;3.698;2024-02-26T13:01:25;6.50;;;2.47;;
66256;SDS011;53049;43.446;3.698;2024-02-26T13:03:52;8.35;;;2.40;;
66256;SDS011;53049;43.446;3.698;2024-02-26T13:06:19;8.82;;;2.53;;
66256;SDS011;53049;43.446;3.698;2024-02-26T13:08:46;6.60;;;2.00;;
66256;SDS011;53049;43.446;3.698;2024-02-26T13:11:12;7.10;;;2.13;;
66256;SDS011;53049;43.446;3.698;2024-02-26T13:13:39;6.68;;;2.15;;
66256;SDS011;53049;43.446;3.698;2024-02-26T13:16:06;5.55;;;1.95;;
66256;SDS011;53049;43.446;3.698;2024-02-26T13:18:33;4.75;;;2.00;;
66256;SDS011;53049;43.446;3.698;2024-02-26T13:21:13;6.03;;;1.95;;
66256;SDS011;53049;43.446;3.698;2024-02-26T13:23:40;5.60;;;2.00;;
66256;SDS011;53049;43.446;3.698;2024-02-26T13:26:08;8.15;;;2.10;;
66256;SDS011;53049;43.446;3.698;2024-02-26T13:28:36;8.63;;;2.45;;
66256;SDS011;53049;43.446;3.698;2024-02-26T13:31:02;9.60;;;1.98;;
66256;SDS011;53049;43.446;3.698;2024-02-26T13:33:30;10.75;;;2.70;;
66256;SDS011;53049;43.446;3.698;2024-02-26T13:35:57;11.30;;;2.22;;
66256;SDS011;53049;43.446;3.698;2024-02-26T13:38:24;8.48;;;2.17;;
66256;SDS011;53049;43.446;3.698;2024-02-26T13:40:50;7.22;;;2.45;;
66256;SDS011;53049;43.446;3.698;2024-02-26T13:43:16;7.97;;;2.00;;
66256;SDS011;53049;43.446;3.698;2024-02-26T13:45:42;7.75;;;1.60;;
66256;SDS011;53049;43.446;3.698;2024-02-26T13:48:09;5.68;;;1.75;;
66256;SDS011;53049;43.446;3.698;2024-02-26T13:50:36;6.22;;;1.85;;
66256;SDS011;53049;43.446;3.698;2024-02-26T13:53:05;6.85;;;2.03;;
66256;SDS011;53049;43.446;3.698;2024-02-26T13:55:31;6.53;;;2.20;;
66256;SDS011;53049;43.446;3.698;2024-02-26T13:57:58;4.30;;;1.50;;
66256;SDS011;53049;43.446;3.698;2024-02-26T14:00:26;7.15;;;1.70;;
66256;SDS011;53049;43.446;3.698;2024-02-26T14:02:53;5.68;;;2.13;;
66256;SDS011;53049;43.446;3.698;2024-02-26T14:05:18;4.93;;;1.80;;
66256;SDS011;53049;43.446;3.698;2024-02-26T14:07:44;7.20;;;2.13;;
66256;SDS011;53049;43.446;3.698;2024-02-26T14:10:11;8.02;;;1.95;;
66256;SDS011;53049;43.446;3.698;2024-02-26T14:12:37;7.43;;;2.00;;
66256;SDS011;53049;43.446;3.698;2024-02-26T14:15:05;7.22;;;1.90;;
66256;SDS011;53049;43.446;3.698;2024-02-26T14:17:32;5.60;;;1.85;;
66256;SDS011;53049;43.446;3.698;2024-02-26T14:19:57;9.90;;;2.92;;
66256;SDS011;53049;43.446;3.698;2024-02-26T14:22:23;6.43;;;2.30;;
66256;SDS011;53049;43.446;3.698;2024-02-26T14:24:51;8.00;;;2.30;;
66256;SDS011;53049;43.446;3.698;2024-02-26T14:27:18;6.57;;;1.90;;
66256;SDS011;53049;43.446;3.698;2024-02-26T14:29:45;7.47;;;2.10;;
66256;SDS011;53049;43.446;3.698;2024-02-26T14:32:11;5.57;;;2.65;;
66256;SDS011;53049;43.446;3.698;2024-02-26T14:34:37;7.25;;;2.20;;
66256;SDS011;53049;43.446;3.698;2024-02-26T14:37:02;6.22;;;1.98;;
66256;SDS011;53049;43.446;3.698;2024-02-26T14:39:29;7.07;;;1.90;;
66256;SDS011;53049;43.446;3.698;2024-02-26T14:41:57;6.30;;;2.08;;
66256;SDS011;53049;43.446;3.698;2024-02-26T14:44:23;5.78;;;1.98;;
66256;SDS011;53049;43.446;3.698;2024-02-26T14:46:49;6.18;;;1.80;;
66256;SDS011;53049;43.446;3.698;2024-02-26T14:49:15;6.65;;;2.17;;
66256;SDS011;53049;43.446;3.698;2024-02-26T14:51:42;7.22;;;2.30;;
66256;SDS011;53049;43.446;3.698;2024-02-26T14:54:09;5.07;;;2.10;;